sensor_id;sensor_type;location;lat;lon;timestamp;P1;durP1;ratioP1;P2;durP2;ratioP2
75303;SDS011;64042;50.916;6.988;2022-11-15T00:00:25;3.55;;;3.00;;
75303;SDS011;64042;50.916;6.988;2022-11-15T00:02:54;3.65;;;3.35;;
75303;SDS011;64042;50.916;6.988;2022-11-15T00:05:19;4.63;;;3.95;;
75303;SDS011;64042;50.916;6.988;2022-11-15T00:07:45;4.10;;;3.42;;
75303;SDS011;64042;50.916;6.988;2022-11-15T00:10:10;5.95;;;5.53;;
75303;SDS011;64042;50.916;6.988;2022-11-15T00:12:36;4.20;;;3.73;;
75303;SDS011;64042;50.916;6.988;2022-11-15T00:15:01;3.80;;;3.22;;
75303;SDS011;64042;50.916;6.988;2022-11-15T00:17:27;4.72;;;3.97;;
75303;SDS011;64042;50.916;6.988;2022-11-15T00:19:52;4.17;;;3.43;;
75303;SDS011;64042;50.916;6.988;2022-11-15T00:22:17;3.37;;;3.07;;
75303;SDS011;64042;50.916;6.988;2022-11-15T00:24:42;3.90;;;3.47;;
75303;SDS011;64042;50.916;6.988;2022-11-15T00:27:08;4.13;;;3.63;;
75303;SDS011;64042;50.916;6.988;2022-11-15T00:29:33;4.43;;;4.00;;
75303;SDS011;64042;50.916;6.988;2022-11-15T00:31:58;4.20;;;3.78;;
75303;SDS011;64042;50.916;6.988;2022-11-15T00:34:24;3.73;;;3.43;;
75303;SDS011;64042;50.916;6.988;2022-11-15T00:36:49;3.83;;;3.50;;
75303;SDS011;64042;50.916;6.988;2022-11-15T00:39:14;3.27;;;2.97;;
75303;SDS011;64042;50.916;6.988;2022-11-15T00:41:39;4.33;;;3.20;;
75303;SDS011;64042;50.916;6.988;2022-11-15T00:44:05;3.40;;;3.10;;
75303;SDS011;64042;50.916;6.988;2022-11-15T00:46:30;3.73;;;2.83;;
75303;SDS011;64042;50.916;6.988;2022-11-15T00:48:55;3.90;;;3.60;;
75303;SDS011;64042;50.916;6.988;2022-11-15T00:51:21;3.30;;;3.00;;
75303;SDS011;64042;50.916;6.988;2022-11-15T00:53:46;4.15;;;3.75;;
75303;SDS011;64042;50.916;6.988;2022-11-15T00:56:11;4.10;;;3.73;;
75303;SDS011;64042;50.916;6.988;2022-11-15T00:58:36;3.63;;;2.80;;
75303;SDS011;64042;50.916;6.988;2022-11-15T01:01:09;3.90;;;3.60;;
75303;SDS011;64042;50.916;6.988;2022-11-15T01:03:35;3.67;;;3.00;;
75303;SDS011;64042;50.916;6.988;2022-11-15T01:06:01;3.40;;;3.10;;
75303;SDS011;64042;50.916;6.988;2022-11-15T01:08:26;3.83;;;3.47;;
75303;SDS011;64042;50.916;6.988;2022-11-15T01:10:52;3.87;;;3.53;;
75303;SDS011;64042;50.916;6.988;2022-11-15T01:13:17;3.43;;;3.13;;
75303;SDS011;64042;50.916;6.988;2022-11-15T01:15:42;3.47;;;3.17;;
75303;SDS011;64042;50.916;6.988;2022-11-15T01:18:08;3.60;;;2.95;;
75303;SDS011;64042;50.916;6.988;2022-11-15T01:20:33;3.17;;;2.88;;
75303;SDS011;64042;50.916;6.988;2022-11-15T01:22:58;3.85;;;3.45;;
75303;SDS011;64042;50.916;6.988;2022-11-15T01:25:23;4.00;;;2.97;;
75303;SDS011;64042;50.916;6.988;2022-11-15T01:27:49;3.53;;;3.23;;
75303;SDS011;64042;50.916;6.988;2022-11-15T01:30:14;3.73;;;3.33;;
75303;SDS011;64042;50.916;6.988;2022-11-15T01:32:40;3.95;;;3.22;;
75303;SDS011;64042;50.916;6.988;2022-11-15T01:35:05;3.30;;;3.00;;
75303;SDS011;64042;50.916;6.988;2022-11-15T01:37:30;3.45;;;2.95;;
75303;SDS011;64042;50.916;6.988;2022-11-15T01:39:56;2.80;;;2.50;;
75303;SDS011;64042;50.916;6.988;2022-11-15T01:42:21;3.30;;;3.00;;
75303;SDS011;64042;50.916;6.988;2022-11-15T01:44:47;3.23;;;2.93;;
75303;SDS011;64042;50.916;6.988;2022-11-15T01:47:24;4.13;;;3.50;;
75303;SDS011;64042;50.916;6.988;2022-11-15T01:50:04;3.83;;;3.50;;
75303;SDS011;64042;50.916;6.988;2022-11-15T01:52:32;3.92;;;3.22;;
75303;SDS011;64042;50.916;6.988;2022-11-15T01:55:09;4.32;;;3.97;;
75303;SDS011;64042;50.916;6.988;2022-11-15T01:57:37;4.45;;;4.05;;
75303;SDS011;64042;50.916;6.988;2022-11-15T02:00:04;4.25;;;3.53;;
75303;SDS011;64042;50.916;6.988;2022-11-15T02:02:31;3.47;;;3.17;;
75303;SDS011;64042;50.916;6.988;2022-11-15T02:04:57;3.78;;;3.47;;
75303;SDS011;64042;50.916;6.988;2022-11-15T02:07:22;4.18;;;3.83;;
75303;SDS011;64042;50.916;6.988;2022-11-15T02:09:48;3.70;;;2.97;;
75303;SDS011;64042;50.916;6.988;2022-11-15T02:12:15;3.35;;;3.05;;
75303;SDS011;64042;50.916;6.988;2022-11-15T02:14:44;3.25;;;2.95;;
75303;SDS011;64042;50.916;6.988;2022-11-15T02:17:16;3.13;;;2.83;;
75303;SDS011;64042;50.916;6.988;2022-11-15T02:34:16;4.15;;;3.75;;
75303;SDS011;64042;50.916;6.988;2022-11-15T02:39:34;3.28;;;2.97;;
75303;SDS011;64042;50.916;6.988;2022-11-15T02:42:07;3.63;;;2.97;;
75303;SDS011;64042;50.916;6.988;2022-11-15T02:44:55;3.22;;;2.92;;
75303;SDS011;64042;50.916;6.988;2022-11-15T02:47:21;4.00;;;3.70;;
75303;SDS011;64042;50.916;6.988;2022-11-15T02:49:49;3.47;;;3.13;;
75303;SDS011;64042;50.916;6.988;2022-11-15T02:52:17;3.60;;;3.30;;
75303;SDS011;64042;50.916;6.988;2022-11-15T02:54:53;3.22;;;2.92;;
75303;SDS011;64042;50.916;6.988;2022-11-15T02:57:22;3.10;;;2.70;;
75303;SDS011;64042;50.916;6.988;2022-11-15T02:59:57;2.92;;;2.63;;
75303;SDS011;64042;50.916;6.988;2022-11-15T03:02:42;2.80;;;2.60;;
75303;SDS011;64042;50.916;6.988;2022-11-15T03:11:13;2.53;;;2.33;;
75303;SDS011;64042;50.916;6.988;2022-11-15T03:19:12;3.88;;;3.55;;
75303;SDS011;64042;50.916;6.988;2022-11-15T03:21:39;3.53;;;3.10;;
75303;SDS011;64042;50.916;6.988;2022-11-15T03:24:05;4.05;;;2.88;;
75303;SDS011;64042;50.916;6.988;2022-11-15T03:26:31;3.67;;;3.28;;
75303;SDS011;64042;50.916;6.988;2022-11-15T03:29:00;3.25;;;2.75;;
75303;SDS011;64042;50.916;6.988;2022-11-15T03:31:27;3.17;;;2.88;;
75303;SDS011;64042;50.916;6.988;2022-11-15T03:34:35;2.70;;;2.50;;
75303;SDS011;64042;50.916;6.988;2022-11-15T03:37:00;2.85;;;2.58;;
75303;SDS011;64042;50.916;6.988;2022-11-15T03:39:26;2.92;;;2.65;;
75303;SDS011;64042;50.916;6.988;2022-11-15T03:47:25;3.05;;;2.75;;
75303;SDS011;64042;50.916;6.988;2022-11-15T03:49:58;3.00;;;2.70;;
75303;SDS011;64042;50.916;6.988;2022-11-15T03:52:25;4.50;;;2.63;;
75303;SDS011;64042;50.916;6.988;2022-11-15T03:54:52;3.10;;;2.70;;
75303;SDS011;64042;50.916;6.988;2022-11-15T03:57:19;2.85;;;2.63;;
75303;SDS011;64042;50.916;6.988;2022-11-15T03:59:44;3.40;;;2.72;;
75303;SDS011;64042;50.916;6.988;2022-11-15T04:02:09;3.17;;;2.90;;
75303;SDS011;64042;50.916;6.988;2022-11-15T04:04:35;3.25;;;3.05;;
75303;SDS011;64042;50.916;6.988;2022-11-15T04:07:00;3.42;;;2.70;;
75303;SDS011;64042;50.916;6.988;2022-11-15T04:09:25;3.17;;;2.87;;
75303;SDS011;64042;50.916;6.988;2022-11-15T04:11:51;2.97;;;2.50;;
75303;SDS011;64042;50.916;6.988;2022-11-15T04:14:16;3.43;;;3.13;;
75303;SDS011;64042;50.916;6.988;2022-11-15T04:16:41;2.83;;;2.63;;
75303;SDS011;64042;50.916;6.988;2022-11-15T04:19:07;3.00;;;2.70;;
75303;SDS011;64042;50.916;6.988;2022-11-15T04:21:50;2.95;;;2.10;;
75303;SDS011;64042;50.916;6.988;2022-11-15T04:24:34;2.60;;;2.40;;
75303;SDS011;64042;50.916;6.988;2022-11-15T04:27:00;3.00;;;2.43;;
75303;SDS011;64042;50.916;6.988;2022-11-15T04:29:25;2.85;;;2.65;;
75303;SDS011;64042;50.916;6.988;2022-11-15T04:32:03;3.15;;;2.78;;
75303;SDS011;64042;50.916;6.988;2022-11-15T04:34:30;5.53;;;2.88;;
75303;SDS011;64042;50.916;6.988;2022-11-15T04:36:55;3.05;;;2.85;;
75303;SDS011;64042;50.916;6.988;2022-11-15T04:39:40;2.78;;;2.58;;
75303;SDS011;64042;50.916;6.988;2022-11-15T04:42:05;2.88;;;2.60;;
75303;SDS011;64042;50.916;6.988;2022-11-15T04:44:31;2.42;;;2.17;;
75303;SDS011;64042;50.916;6.988;2022-11-15T04:46:56;3.13;;;2.57;;
75303;SDS011;64042;50.916;6.988;2022-11-15T04:49:21;3.20;;;2.90;;
75303;SDS011;64042;50.916;6.988;2022-11-15T04:51:47;2.50;;;2.30;;
75303;SDS011;64042;50.916;6.988;2022-11-15T04:54:12;3.00;;;2.77;;
75303;SDS011;64042;50.916;6.988;2022-11-15T04:56:37;2.72;;;2.22;;
75303;SDS011;64042;50.916;6.988;2022-11-15T04:59:03;2.53;;;2.33;;
75303;SDS011;64042;50.916;6.988;2022-11-15T05:01:28;2.40;;;2.20;;
75303;SDS011;64042;50.916;6.988;2022-11-15T05:03:53;2.90;;;2.70;;
75303;SDS011;64042;50.916;6.988;2022-11-15T05:06:37;3.28;;;2.97;;
75303;SDS011;64042;50.916;6.988;2022-11-15T05:09:02;3.03;;;2.60;;
75303;SDS011;64042;50.916;6.988;2022-11-15T05:11:28;3.35;;;3.05;;
75303;SDS011;64042;50.916;6.988;2022-11-15T05:13:53;3.20;;;3.00;;
75303;SDS011;64042;50.916;6.988;2022-11-15T05:16:18;2.60;;;2.40;;
75303;SDS011;64042;50.916;6.988;2022-11-15T05:18:44;3.75;;;3.45;;
75303;SDS011;64042;50.916;6.988;2022-11-15T05:21:10;2.83;;;2.60;;
75303;SDS011;64042;50.916;6.988;2022-11-15T05:23:37;3.10;;;2.72;;
75303;SDS011;64042;50.916;6.988;2022-11-15T05:26:04;3.47;;;3.08;;
75303;SDS011;64042;50.916;6.988;2022-11-15T05:28:30;2.83;;;2.45;;
75303;SDS011;64042;50.916;6.988;2022-11-15T05:33:28;2.65;;;2.45;;
75303;SDS011;64042;50.916;6.988;2022-11-15T05:36:54;2.60;;;2.40;;
75303;SDS011;64042;50.916;6.988;2022-11-15T05:38:56;2.88;;;2.63;;
75303;SDS011;64042;50.916;6.988;2022-11-15T05:41:23;2.92;;;2.63;;
75303;SDS011;64042;50.916;6.988;2022-11-15T05:43:52;3.03;;;2.40;;
75303;SDS011;64042;50.916;6.988;2022-11-15T05:46:18;2.08;;;1.98;;
75303;SDS011;64042;50.916;6.988;2022-11-15T05:48:44;2.53;;;2.28;;
75303;SDS011;64042;50.916;6.988;2022-11-15T05:51:12;2.70;;;2.50;;
75303;SDS011;64042;50.916;6.988;2022-11-15T05:53:37;3.05;;;2.55;;
75303;SDS011;64042;50.916;6.988;2022-11-15T05:56:03;2.55;;;2.35;;
75303;SDS011;64042;50.916;6.988;2022-11-15T05:58:31;2.80;;;2.50;;
75303;SDS011;64042;50.916;6.988;2022-11-15T06:00:57;2.78;;;2.38;;
75303;SDS011;64042;50.916;6.988;2022-11-15T06:03:22;2.93;;;2.63;;
75303;SDS011;64042;50.916;6.988;2022-11-15T06:05:47;3.05;;;2.30;;
75303;SDS011;64042;50.916;6.988;2022-11-15T06:08:13;2.90;;;2.60;;
75303;SDS011;64042;50.916;6.988;2022-11-15T06:10:38;2.30;;;2.10;;
75303;SDS011;64042;50.916;6.988;2022-11-15T06:13:04;2.60;;;2.40;;
75303;SDS011;64042;50.916;6.988;2022-11-15T06:15:29;2.58;;;2.35;;
75303;SDS011;64042;50.916;6.988;2022-11-15T06:17:58;3.03;;;2.83;;
75303;SDS011;64042;50.916;6.988;2022-11-15T06:20:24;2.67;;;2.42;;
75303;SDS011;64042;50.916;6.988;2022-11-15T06:22:50;2.40;;;2.20;;
75303;SDS011;64042;50.916;6.988;2022-11-15T06:25:15;3.50;;;2.47;;
75303;SDS011;64042;50.916;6.988;2022-11-15T06:27:40;3.27;;;2.80;;
75303;SDS011;64042;50.916;6.988;2022-11-15T06:30:06;2.70;;;2.43;;
75303;SDS011;64042;50.916;6.988;2022-11-15T06:32:31;2.38;;;2.15;;
75303;SDS011;64042;50.916;6.988;2022-11-15T06:34:57;2.77;;;2.50;;
75303;SDS011;64042;50.916;6.988;2022-11-15T06:37:22;2.07;;;1.90;;
75303;SDS011;64042;50.916;6.988;2022-11-15T06:39:47;2.30;;;2.10;;
75303;SDS011;64042;50.916;6.988;2022-11-15T06:42:12;2.73;;;2.53;;
75303;SDS011;64042;50.916;6.988;2022-11-15T06:44:38;2.50;;;2.30;;
75303;SDS011;64042;50.916;6.988;2022-11-15T06:47:03;3.17;;;2.87;;
75303;SDS011;64042;50.916;6.988;2022-11-15T06:49:28;2.97;;;2.33;;
75303;SDS011;64042;50.916;6.988;2022-11-15T06:51:53;2.47;;;2.27;;
75303;SDS011;64042;50.916;6.988;2022-11-15T06:54:19;2.63;;;2.43;;
75303;SDS011;64042;50.916;6.988;2022-11-15T06:56:45;3.10;;;2.80;;
75303;SDS011;64042;50.916;6.988;2022-11-15T06:59:11;2.70;;;2.03;;
75303;SDS011;64042;50.916;6.988;2022-11-15T07:01:36;3.90;;;2.40;;
75303;SDS011;64042;50.916;6.988;2022-11-15T07:04:04;2.40;;;2.13;;
75303;SDS011;64042;50.916;6.988;2022-11-15T07:06:29;2.63;;;2.43;;
75303;SDS011;64042;50.916;6.988;2022-11-15T07:08:54;2.90;;;2.30;;
75303;SDS011;64042;50.916;6.988;2022-11-15T07:11:19;2.33;;;2.10;;
75303;SDS011;64042;50.916;6.988;2022-11-15T07:13:45;2.35;;;2.15;;
75303;SDS011;64042;50.916;6.988;2022-11-15T07:16:10;2.67;;;2.47;;
75303;SDS011;64042;50.916;6.988;2022-11-15T07:18:36;3.35;;;2.15;;
75303;SDS011;64042;50.916;6.988;2022-11-15T07:21:03;2.17;;;2.00;;
75303;SDS011;64042;50.916;6.988;2022-11-15T07:23:29;2.55;;;2.25;;
75303;SDS011;64042;50.916;6.988;2022-11-15T07:25:56;2.35;;;2.15;;
75303;SDS011;64042;50.916;6.988;2022-11-15T07:28:23;2.53;;;2.33;;
75303;SDS011;64042;50.916;6.988;2022-11-15T07:30:48;2.25;;;2.05;;
75303;SDS011;64042;50.916;6.988;2022-11-15T07:33:13;2.80;;;2.33;;
75303;SDS011;64042;50.916;6.988;2022-11-15T07:35:39;2.50;;;2.30;;
75303;SDS011;64042;50.916;6.988;2022-11-15T07:38:04;2.75;;;2.30;;
75303;SDS011;64042;50.916;6.988;2022-11-15T07:40:30;3.40;;;2.13;;
75303;SDS011;64042;50.916;6.988;2022-11-15T07:43:00;2.78;;;2.17;;
75303;SDS011;64042;50.916;6.988;2022-11-15T07:45:26;2.42;;;2.22;;
75303;SDS011;64042;50.916;6.988;2022-11-15T07:47:51;2.38;;;2.17;;
75303;SDS011;64042;50.916;6.988;2022-11-15T07:50:17;2.72;;;2.53;;
75303;SDS011;64042;50.916;6.988;2022-11-15T07:52:43;3.03;;;2.83;;
75303;SDS011;64042;50.916;6.988;2022-11-15T07:55:08;2.45;;;2.25;;
75303;SDS011;64042;50.916;6.988;2022-11-15T07:57:33;3.00;;;2.75;;
75303;SDS011;64042;50.916;6.988;2022-11-15T07:59:59;2.20;;;1.80;;
75303;SDS011;64042;50.916;6.988;2022-11-15T08:02:24;2.60;;;2.40;;
75303;SDS011;64042;50.916;6.988;2022-11-15T08:04:49;2.38;;;2.17;;
75303;SDS011;64042;50.916;6.988;2022-11-15T08:07:15;2.75;;;2.30;;
75303;SDS011;64042;50.916;6.988;2022-11-15T08:09:40;2.43;;;2.17;;
75303;SDS011;64042;50.916;6.988;2022-11-15T08:12:06;2.28;;;1.80;;
75303;SDS011;64042;50.916;6.988;2022-11-15T08:14:31;2.58;;;2.00;;
75303;SDS011;64042;50.916;6.988;2022-11-15T08:16:56;2.75;;;2.55;;
75303;SDS011;64042;50.916;6.988;2022-11-15T08:19:22;3.42;;;2.60;;
75303;SDS011;64042;50.916;6.988;2022-11-15T08:21:47;2.63;;;2.42;;
75303;SDS011;64042;50.916;6.988;2022-11-15T08:24:12;2.30;;;2.10;;
75303;SDS011;64042;50.916;6.988;2022-11-15T08:26:38;3.08;;;2.88;;
75303;SDS011;64042;50.916;6.988;2022-11-15T08:29:04;2.78;;;2.28;;
75303;SDS011;64042;50.916;6.988;2022-11-15T08:31:29;2.13;;;1.92;;
75303;SDS011;64042;50.916;6.988;2022-11-15T08:33:55;2.83;;;2.63;;
75303;SDS011;64042;50.916;6.988;2022-11-15T08:36:20;2.50;;;2.30;;
75303;SDS011;64042;50.916;6.988;2022-11-15T08:38:45;2.40;;;2.20;;
75303;SDS011;64042;50.916;6.988;2022-11-15T08:41:12;1.97;;;1.80;;
75303;SDS011;64042;50.916;6.988;2022-11-15T08:43:39;4.35;;;3.97;;
75303;SDS011;64042;50.916;6.988;2022-11-15T08:46:04;2.83;;;2.00;;
75303;SDS011;64042;50.916;6.988;2022-11-15T08:48:29;2.73;;;2.33;;
75303;SDS011;64042;50.916;6.988;2022-11-15T08:50:55;2.20;;;2.00;;
75303;SDS011;64042;50.916;6.988;2022-11-15T08:53:21;2.25;;;2.05;;
75303;SDS011;64042;50.916;6.988;2022-11-15T08:55:46;2.28;;;2.08;;
75303;SDS011;64042;50.916;6.988;2022-11-15T08:58:11;2.78;;;2.58;;
75303;SDS011;64042;50.916;6.988;2022-11-15T09:00:37;2.03;;;1.83;;
75303;SDS011;64042;50.916;6.988;2022-11-15T09:03:06;2.58;;;2.13;;
75303;SDS011;64042;50.916;6.988;2022-11-15T09:05:31;1.92;;;1.83;;
75303;SDS011;64042;50.916;6.988;2022-11-15T09:07:57;2.00;;;1.90;;
75303;SDS011;64042;50.916;6.988;2022-11-15T09:10:22;2.47;;;1.77;;
75303;SDS011;64042;50.916;6.988;2022-11-15T09:12:47;2.13;;;1.92;;
75303;SDS011;64042;50.916;6.988;2022-11-15T09:15:13;2.30;;;2.10;;
75303;SDS011;64042;50.916;6.988;2022-11-15T09:17:39;2.08;;;1.73;;
75303;SDS011;64042;50.916;6.988;2022-11-15T09:20:05;2.13;;;2.03;;
75303;SDS011;64042;50.916;6.988;2022-11-15T09:22:31;2.13;;;1.65;;
75303;SDS011;64042;50.916;6.988;2022-11-15T09:24:56;2.33;;;1.90;;
75303;SDS011;64042;50.916;6.988;2022-11-15T09:27:21;1.80;;;1.67;;
75303;SDS011;64042;50.916;6.988;2022-11-15T09:29:46;2.13;;;1.93;;
75303;SDS011;64042;50.916;6.988;2022-11-15T09:32:12;1.77;;;1.67;;
75303;SDS011;64042;50.916;6.988;2022-11-15T09:34:37;2.80;;;2.08;;
75303;SDS011;64042;50.916;6.988;2022-11-15T09:37:02;2.60;;;2.40;;
75303;SDS011;64042;50.916;6.988;2022-11-15T09:39:28;1.87;;;1.77;;
75303;SDS011;64042;50.916;6.988;2022-11-15T09:49:52;40.40;;;13.60;;
75303;SDS011;64042;50.916;6.988;2022-11-15T09:52:19;84.85;;;33.85;;
75303;SDS011;64042;50.916;6.988;2022-11-15T09:54:46;53.35;;;23.27;;
75303;SDS011;64042;50.916;6.988;2022-11-15T10:00:04;30.25;;;12.38;;
75303;SDS011;64042;50.916;6.988;2022-11-15T10:05:22;20.00;;;9.80;;
75303;SDS011;64042;50.916;6.988;2022-11-15T10:07:57;19.00;;;8.48;;
75303;SDS011;64042;50.916;6.988;2022-11-15T10:10:29;21.83;;;8.50;;
75303;SDS011;64042;50.916;6.988;2022-11-15T10:13:07;18.15;;;7.68;;
75303;SDS011;64042;50.916;6.988;2022-11-15T10:15:39;29.73;;;21.63;;
75303;SDS011;64042;50.916;6.988;2022-11-15T10:20:40;22.17;;;14.75;;
75303;SDS011;64042;50.916;6.988;2022-11-15T10:23:19;96.95;;;47.22;;
75303;SDS011;64042;50.916;6.988;2022-11-15T10:25:46;89.63;;;36.08;;
75303;SDS011;64042;50.916;6.988;2022-11-15T10:28:22;80.85;;;32.72;;
75303;SDS011;64042;50.916;6.988;2022-11-15T10:30:54;83.00;;;30.60;;
75303;SDS011;64042;50.916;6.988;2022-11-15T10:33:31;112.18;;;57.38;;
75303;SDS011;64042;50.916;6.988;2022-11-15T10:41:37;40.13;;;20.30;;
75303;SDS011;64042;50.916;6.988;2022-11-15T10:46:33;40.83;;;17.08;;
75303;SDS011;64042;50.916;6.988;2022-11-15T10:49:14;37.78;;;15.80;;
75303;SDS011;64042;50.916;6.988;2022-11-15T10:51:55;32.78;;;14.90;;
75303;SDS011;64042;50.916;6.988;2022-11-15T10:54:42;33.70;;;14.23;;
75303;SDS011;64042;50.916;6.988;2022-11-15T10:57:13;29.27;;;13.63;;
75303;SDS011;64042;50.916;6.988;2022-11-15T11:00:00;30.88;;;13.77;;
75303;SDS011;64042;50.916;6.988;2022-11-15T11:04:57;27.23;;;12.30;;
75303;SDS011;64042;50.916;6.988;2022-11-15T11:07:24;22.75;;;10.82;;
75303;SDS011;64042;50.916;6.988;2022-11-15T11:10:03;27.92;;;11.70;;
75303;SDS011;64042;50.916;6.988;2022-11-15T11:12:45;28.42;;;11.07;;
75303;SDS011;64042;50.916;6.988;2022-11-15T11:15:14;27.07;;;12.57;;
75303;SDS011;64042;50.916;6.988;2022-11-15T11:22:56;23.33;;;11.75;;
75303;SDS011;64042;50.916;6.988;2022-11-15T11:31:36;18.13;;;8.98;;
75303;SDS011;64042;50.916;6.988;2022-11-15T11:34:16;22.20;;;9.65;;
75303;SDS011;64042;50.916;6.988;2022-11-15T11:37:29;16.83;;;8.82;;
75303;SDS011;64042;50.916;6.988;2022-11-15T11:40:03;15.48;;;8.27;;
75303;SDS011;64042;50.916;6.988;2022-11-15T11:51:07;16.92;;;7.65;;
75303;SDS011;64042;50.916;6.988;2022-11-15T11:53:48;18.55;;;7.35;;
75303;SDS011;64042;50.916;6.988;2022-11-15T11:56:28;19.08;;;7.82;;
75303;SDS011;64042;50.916;6.988;2022-11-15T11:59:01;17.38;;;8.27;;
75303;SDS011;64042;50.916;6.988;2022-11-15T12:01:36;17.17;;;7.18;;
75303;SDS011;64042;50.916;6.988;2022-11-15T12:15:23;16.92;;;7.88;;
75303;SDS011;64042;50.916;6.988;2022-11-15T12:17:50;15.68;;;7.30;;
75303;SDS011;64042;50.916;6.988;2022-11-15T12:20:17;13.88;;;6.63;;
75303;SDS011;64042;50.916;6.988;2022-11-15T12:22:47;15.25;;;7.00;;
75303;SDS011;64042;50.916;6.988;2022-11-15T12:27:50;14.80;;;6.70;;
75303;SDS011;64042;50.916;6.988;2022-11-15T12:30:19;12.70;;;7.07;;
75303;SDS011;64042;50.916;6.988;2022-11-15T12:32:50;14.13;;;6.45;;
75303;SDS011;64042;50.916;6.988;2022-11-15T12:35:29;14.60;;;7.20;;
75303;SDS011;64042;50.916;6.988;2022-11-15T12:37:59;11.60;;;6.38;;
75303;SDS011;64042;50.916;6.988;2022-11-15T12:40:26;12.48;;;6.03;;
75303;SDS011;64042;50.916;6.988;2022-11-15T12:43:02;14.60;;;7.55;;
75303;SDS011;64042;50.916;6.988;2022-11-15T12:45:41;10.50;;;6.18;;
75303;SDS011;64042;50.916;6.988;2022-11-15T12:56:35;11.00;;;6.38;;
75303;SDS011;64042;50.916;6.988;2022-11-15T13:06:43;9.85;;;5.28;;
75303;SDS011;64042;50.916;6.988;2022-11-15T13:11:54;9.70;;;5.45;;
75303;SDS011;64042;50.916;6.988;2022-11-15T13:19:47;11.80;;;5.18;;
75303;SDS011;64042;50.916;6.988;2022-11-15T13:22:43;9.35;;;4.78;;
75303;SDS011;64042;50.916;6.988;2022-11-15T13:28:01;10.00;;;4.50;;
75303;SDS011;64042;50.916;6.988;2022-11-15T13:30:29;9.75;;;5.43;;
75303;SDS011;64042;50.916;6.988;2022-11-15T13:32:55;11.23;;;5.30;;
75303;SDS011;64042;50.916;6.988;2022-11-15T13:35:21;9.00;;;5.45;;
75303;SDS011;64042;50.916;6.988;2022-11-15T13:37:52;9.57;;;4.88;;
75303;SDS011;64042;50.916;6.988;2022-11-15T13:42:52;9.43;;;4.68;;
75303;SDS011;64042;50.916;6.988;2022-11-15T13:45:18;8.80;;;4.55;;
75303;SDS011;64042;50.916;6.988;2022-11-15T13:47:44;9.95;;;4.63;;
75303;SDS011;64042;50.916;6.988;2022-11-15T13:50:10;8.20;;;4.00;;
75303;SDS011;64042;50.916;6.988;2022-11-15T13:52:37;9.38;;;4.88;;
75303;SDS011;64042;50.916;6.988;2022-11-15T13:55:16;10.63;;;4.82;;
75303;SDS011;64042;50.916;6.988;2022-11-15T14:00:35;21.02;;;9.60;;
75303;SDS011;64042;50.916;6.988;2022-11-15T14:03:22;10.32;;;6.45;;
75303;SDS011;64042;50.916;6.988;2022-11-15T14:06:06;22.40;;;9.85;;
75303;SDS011;64042;50.916;6.988;2022-11-15T14:08:37;48.70;;;19.60;;
75303;SDS011;64042;50.916;6.988;2022-11-15T14:11:14;75.15;;;27.35;;
75303;SDS011;64042;50.916;6.988;2022-11-15T14:13:42;70.75;;;24.88;;
75303;SDS011;64042;50.916;6.988;2022-11-15T14:16:14;77.75;;;27.77;;
75303;SDS011;64042;50.916;6.988;2022-11-15T14:21:13;90.13;;;30.60;;
75303;SDS011;64042;50.916;6.988;2022-11-15T14:23:38;101.07;;;35.50;;
75303;SDS011;64042;50.916;6.988;2022-11-15T14:26:04;118.05;;;43.05;;
75303;SDS011;64042;50.916;6.988;2022-11-15T14:28:30;139.18;;;50.72;;
75303;SDS011;64042;50.916;6.988;2022-11-15T14:31:01;154.13;;;54.92;;
75303;SDS011;64042;50.916;6.988;2022-11-15T14:33:35;141.68;;;52.60;;
75303;SDS011;64042;50.916;6.988;2022-11-15T14:38:41;155.65;;;56.25;;
75303;SDS011;64042;50.916;6.988;2022-11-15T14:41:21;149.35;;;53.70;;
75303;SDS011;64042;50.916;6.988;2022-11-15T14:43:51;160.10;;;57.33;;
75303;SDS011;64042;50.916;6.988;2022-11-15T14:46:17;159.50;;;54.55;;
75303;SDS011;64042;50.916;6.988;2022-11-15T14:48:42;165.70;;;57.65;;
75303;SDS011;64042;50.916;6.988;2022-11-15T14:51:15;166.63;;;59.78;;
75303;SDS011;64042;50.916;6.988;2022-11-15T14:53:42;170.38;;;57.60;;
75303;SDS011;64042;50.916;6.988;2022-11-15T14:56:08;155.88;;;56.92;;
75303;SDS011;64042;50.916;6.988;2022-11-15T14:58:34;156.75;;;53.67;;
75303;SDS011;64042;50.916;6.988;2022-11-15T15:00:59;152.90;;;57.95;;
75303;SDS011;64042;50.916;6.988;2022-11-15T15:03:24;164.27;;;55.30;;
75303;SDS011;64042;50.916;6.988;2022-11-15T15:05:50;160.63;;;55.27;;
75303;SDS011;64042;50.916;6.988;2022-11-15T15:08:15;157.38;;;54.95;;
75303;SDS011;64042;50.916;6.988;2022-11-15T15:10:42;152.02;;;55.53;;
75303;SDS011;64042;50.916;6.988;2022-11-15T15:15:45;159.27;;;57.05;;
75303;SDS011;64042;50.916;6.988;2022-11-15T15:18:10;151.90;;;54.85;;
75303;SDS011;64042;50.916;6.988;2022-11-15T15:20:36;155.85;;;52.63;;
75303;SDS011;64042;50.916;6.988;2022-11-15T15:23:04;145.93;;;55.80;;
75303;SDS011;64042;50.916;6.988;2022-11-15T15:25:33;137.70;;;49.97;;
75303;SDS011;64042;50.916;6.988;2022-11-15T15:28:00;141.35;;;51.47;;
75303;SDS011;64042;50.916;6.988;2022-11-15T15:30:26;133.30;;;49.15;;
75303;SDS011;64042;50.916;6.988;2022-11-15T15:32:53;145.05;;;50.35;;
75303;SDS011;64042;50.916;6.988;2022-11-15T15:35:19;147.20;;;54.03;;
75303;SDS011;64042;50.916;6.988;2022-11-15T15:37:45;143.70;;;50.95;;
75303;SDS011;64042;50.916;6.988;2022-11-15T15:42:38;130.57;;;46.70;;
75303;SDS011;64042;50.916;6.988;2022-11-15T15:45:03;129.17;;;46.33;;
75303;SDS011;64042;50.916;6.988;2022-11-15T15:47:29;131.02;;;45.75;;
75303;SDS011;64042;50.916;6.988;2022-11-15T15:49:54;128.00;;;46.23;;
75303;SDS011;64042;50.916;6.988;2022-11-15T15:52:19;130.65;;;48.97;;
75303;SDS011;64042;50.916;6.988;2022-11-15T15:54:45;124.13;;;44.57;;
75303;SDS011;64042;50.916;6.988;2022-11-15T15:57:13;126.00;;;44.13;;
75303;SDS011;64042;50.916;6.988;2022-11-15T15:59:39;112.30;;;42.58;;
75303;SDS011;64042;50.916;6.988;2022-11-15T16:02:04;112.85;;;42.08;;
75303;SDS011;64042;50.916;6.988;2022-11-15T16:04:30;117.28;;;42.83;;
75303;SDS011;64042;50.916;6.988;2022-11-15T16:06:58;112.07;;;42.07;;
75303;SDS011;64042;50.916;6.988;2022-11-15T16:09:24;109.50;;;40.67;;
75303;SDS011;64042;50.916;6.988;2022-11-15T16:12:08;109.07;;;38.47;;
75303;SDS011;64042;50.916;6.988;2022-11-15T16:14:33;112.75;;;39.28;;
75303;SDS011;64042;50.916;6.988;2022-11-15T16:16:58;100.07;;;38.20;;
75303;SDS011;64042;50.916;6.988;2022-11-15T16:19:24;109.53;;;39.23;;
75303;SDS011;64042;50.916;6.988;2022-11-15T16:21:49;106.83;;;40.43;;
75303;SDS011;64042;50.916;6.988;2022-11-15T16:24:17;106.28;;;37.83;;
75303;SDS011;64042;50.916;6.988;2022-11-15T16:26:42;96.55;;;36.88;;
75303;SDS011;64042;50.916;6.988;2022-11-15T16:29:08;101.57;;;37.58;;
75303;SDS011;64042;50.916;6.988;2022-11-15T16:31:35;103.47;;;40.33;;
75303;SDS011;64042;50.916;6.988;2022-11-15T16:34:00;94.25;;;37.55;;
75303;SDS011;64042;50.916;6.988;2022-11-15T16:36:26;96.68;;;37.58;;
75303;SDS011;64042;50.916;6.988;2022-11-15T16:38:51;100.30;;;35.72;;
75303;SDS011;64042;50.916;6.988;2022-11-15T16:41:17;100.43;;;35.17;;
75303;SDS011;64042;50.916;6.988;2022-11-15T16:43:46;88.97;;;35.22;;
75303;SDS011;64042;50.916;6.988;2022-11-15T16:46:16;97.82;;;37.08;;
75303;SDS011;64042;50.916;6.988;2022-11-15T16:48:46;88.45;;;34.15;;
75303;SDS011;64042;50.916;6.988;2022-11-15T16:51:12;87.95;;;34.38;;
75303;SDS011;64042;50.916;6.988;2022-11-15T16:53:38;92.93;;;35.45;;
75303;SDS011;64042;50.916;6.988;2022-11-15T16:56:03;89.63;;;31.98;;
75303;SDS011;64042;50.916;6.988;2022-11-15T16:58:40;87.68;;;33.38;;
75303;SDS011;64042;50.916;6.988;2022-11-15T17:01:10;85.35;;;33.17;;
75303;SDS011;64042;50.916;6.988;2022-11-15T17:03:41;81.75;;;33.08;;